sensor_id;sensor_type;location;lat;lon;timestamp;temperature;humidity
75738;DHT22;64356;45.638;13.764;2023-06-10T00:00:34;25.00;66.70
75738;DHT22;64356;45.638;13.764;2023-06-10T00:03:00;25.00;66.60
75738;DHT22;64356;45.638;13.764;2023-06-10T00:05:27;25.00;66.40
75738;DHT22;64356;45.638;13.764;2023-06-10T00:07:55;25.00;66.30
75738;DHT22;64356;45.638;13.764;2023-06-10T00:10:22;25.00;66.20
75738;DHT22;64356;45.638;13.764;2023-06-10T00:12:48;24.90;66.10
75738;DHT22;64356;45.638;13.764;2023-06-10T00:15:13;25.00;66.00
75738;DHT22;64356;45.638;13.764;2023-06-10T00:17:39;25.00;65.90
75738;DHT22;64356;45.638;13.764;2023-06-10T00:20:09;24.90;65.80
75738;DHT22;64356;45.638;13.764;2023-06-10T00:22:37;24.90;65.70
75738;DHT22;64356;45.638;13.764;2023-06-10T00:25:05;24.90;65.60
75738;DHT22;64356;45.638;13.764;2023-06-10T00:27:31;24.90;65.50
75738;DHT22;64356;45.638;13.764;2023-06-10T00:30:02;24.90;65.50
75738;DHT22;64356;45.638;13.764;2023-06-10T00:32:30;25.00;65.50
75738;DHT22;64356;45.638;13.764;2023-06-10T00:34:56;24.90;65.30
75738;DHT22;64356;45.638;13.764;2023-06-10T00:37:22;24.90;65.20
75738;DHT22;64356;45.638;13.764;2023-06-10T00:39:48;24.90;65.20
75738;DHT22;64356;45.638;13.764;2023-06-10T00:42:13;24.90;65.00
75738;DHT22;64356;45.638;13.764;2023-06-10T00:44:39;24.90;64.90
75738;DHT22;64356;45.638;13.764;2023-06-10T00:47:06;24.90;64.90
75738;DHT22;64356;45.638;13.764;2023-06-10T00:49:32;24.90;64.80
75738;DHT22;64356;45.638;13.764;2023-06-10T00:51:58;24.90;64.80
75738;DHT22;64356;45.638;13.764;2023-06-10T00:54:24;24.90;64.80
75738;DHT22;64356;45.638;13.764;2023-06-10T00:56:51;24.90;64.80
75738;DHT22;64356;45.638;13.764;2023-06-10T00:59:18;24.90;64.70
75738;DHT22;64356;45.638;13.764;2023-06-10T01:01:45;24.90;64.60
75738;DHT22;64356;45.638;13.764;2023-06-10T01:04:13;24.90;64.60
75738;DHT22;64356;45.638;13.764;2023-06-10T01:06:45;24.90;64.60
75738;DHT22;64356;45.638;13.764;2023-06-10T01:11:54;24.90;64.60
75738;DHT22;64356;45.638;13.764;2023-06-10T01:14:23;24.90;64.60
75738;DHT22;64356;45.638;13.764;2023-06-10T01:16:49;24.90;65.20
75738;DHT22;64356;45.638;13.764;2023-06-10T01:19:17;24.90;65.10
75738;DHT22;64356;45.638;13.764;2023-06-10T01:21:43;24.90;64.50
75738;DHT22;64356;45.638;13.764;2023-06-10T01:24:14;24.90;64.50
75738;DHT22;64356;45.638;13.764;2023-06-10T01:26:41;24.80;64.40
75738;DHT22;64356;45.638;13.764;2023-06-10T01:29:14;24.80;64.40
75738;DHT22;64356;45.638;13.764;2023-06-10T01:31:49;24.80;64.40
75738;DHT22;64356;45.638;13.764;2023-06-10T01:34:18;24.90;64.30
75738;DHT22;64356;45.638;13.764;2023-06-10T01:36:48;24.80;64.30
75738;DHT22;64356;45.638;13.764;2023-06-10T01:39:15;24.90;64.30
75738;DHT22;64356;45.638;13.764;2023-06-10T01:41:42;24.80;64.30
75738;DHT22;64356;45.638;13.764;2023-06-10T01:44:09;24.80;64.20
75738;DHT22;64356;45.638;13.764;2023-06-10T01:46:35;24.80;64.10
75738;DHT22;64356;45.638;13.764;2023-06-10T01:49:01;24.80;64.10
75738;DHT22;64356;45.638;13.764;2023-06-10T01:51:26;24.80;64.00
75738;DHT22;64356;45.638;13.764;2023-06-10T01:53:52;24.80;64.00
75738;DHT22;64356;45.638;13.764;2023-06-10T01:56:18;24.80;64.00
75738;DHT22;64356;45.638;13.764;2023-06-10T01:58:46;24.80;64.00
75738;DHT22;64356;45.638;13.764;2023-06-10T02:01:11;24.80;63.90
75738;DHT22;64356;45.638;13.764;2023-06-10T02:03:37;24.80;63.90
75738;DHT22;64356;45.638;13.764;2023-06-10T02:06:03;24.80;63.80
75738;DHT22;64356;45.638;13.764;2023-06-10T02:08:29;24.80;64.30
75738;DHT22;64356;45.638;13.764;2023-06-10T02:10:54;24.80;63.70
75738;DHT22;64356;45.638;13.764;2023-06-10T02:13:20;24.80;63.60
75738;DHT22;64356;45.638;13.764;2023-06-10T02:15:46;24.80;63.60
75738;DHT22;64356;45.638;13.764;2023-06-10T02:18:11;24.80;63.60
75738;DHT22;64356;45.638;13.764;2023-06-10T02:20:38;24.80;63.60
75738;DHT22;64356;45.638;13.764;2023-06-10T02:23:04;24.80;63.60
75738;DHT22;64356;45.638;13.764;2023-06-10T02:25:30;24.80;63.60
75738;DHT22;64356;45.638;13.764;2023-06-10T02:27:55;24.80;63.50
75738;DHT22;64356;45.638;13.764;2023-06-10T02:30:21;24.80;63.50
75738;DHT22;64356;45.638;13.764;2023-06-10T02:32:47;24.70;63.40
75738;DHT22;64356;45.638;13.764;2023-06-10T02:35:16;24.80;63.40
75738;DHT22;64356;45.638;13.764;2023-06-10T02:37:43;24.80;63.40
75738;DHT22;64356;45.638;13.764;2023-06-10T02:40:09;24.70;63.30
75738;DHT22;64356;45.638;13.764;2023-06-10T02:42:36;24.70;63.30
75738;DHT22;64356;45.638;13.764;2023-06-10T02:45:02;24.80;63.30
75738;DHT22;64356;45.638;13.764;2023-06-10T02:47:28;24.70;63.20
75738;DHT22;64356;45.638;13.764;2023-06-10T02:49:53;24.70;63.20
75738;DHT22;64356;45.638;13.764;2023-06-10T02:52:19;24.70;63.20
75738;DHT22;64356;45.638;13.764;2023-06-10T02:54:46;24.70;63.20
75738;DHT22;64356;45.638;13.764;2023-06-10T02:57:11;24.70;63.20
75738;DHT22;64356;45.638;13.764;2023-06-10T02:59:37;24.70;63.20
75738;DHT22;64356;45.638;13.764;2023-06-10T03:02:03;24.70;63.20
75738;DHT22;64356;45.638;13.764;2023-06-10T03:04:29;24.70;63.20
75738;DHT22;64356;45.638;13.764;2023-06-10T03:06:56;24.70;63.20
75738;DHT22;64356;45.638;13.764;2023-06-10T03:09:22;24.70;63.20
75738;DHT22;64356;45.638;13.764;2023-06-10T03:11:47;24.70;63.20
75738;DHT22;64356;45.638;13.764;2023-06-10T03:14:13;24.70;63.20
75738;DHT22;64356;45.638;13.764;2023-06-10T03:16:39;24.70;63.20
75738;DHT22;64356;45.638;13.764;2023-06-10T03:19:08;24.70;63.20
75738;DHT22;64356;45.638;13.764;2023-06-10T03:21:36;24.70;63.10
75738;DHT22;64356;45.638;13.764;2023-06-10T03:24:03;24.70;63.10
75738;DHT22;64356;45.638;13.764;2023-06-10T03:26:29;24.70;63.10
75738;DHT22;64356;45.638;13.764;2023-06-10T03:28:54;24.70;63.10
75738;DHT22;64356;45.638;13.764;2023-06-10T03:31:20;24.70;63.20
75738;DHT22;64356;45.638;13.764;2023-06-10T03:33:46;24.60;63.20
75738;DHT22;64356;45.638;13.764;2023-06-10T03:36:12;24.70;63.20
75738;DHT22;64356;45.638;13.764;2023-06-10T03:38:38;24.70;63.20
75738;DHT22;64356;45.638;13.764;2023-06-10T03:41:03;24.70;63.20
75738;DHT22;64356;45.638;13.764;2023-06-10T03:43:29;24.70;63.20
75738;DHT22;64356;45.638;13.764;2023-06-10T03:45:56;24.70;63.20
75738;DHT22;64356;45.638;13.764;2023-06-10T03:48:22;24.70;63.30
75738;DHT22;64356;45.638;13.764;2023-06-10T03:50:47;24.60;63.20
75738;DHT22;64356;45.638;13.764;2023-06-10T03:53:16;24.60;63.20
75738;DHT22;64356;45.638;13.764;2023-06-10T03:55:42;24.60;63.20
75738;DHT22;64356;45.638;13.764;2023-06-10T03:58:08;24.70;63.20
75738;DHT22;64356;45.638;13.764;2023-06-10T04:00:33;24.70;63.20
75738;DHT22;64356;45.638;13.764;2023-06-10T04:03:10;24.70;63.20
75738;DHT22;64356;45.638;13.764;2023-06-10T04:05:40;24.70;63.30
75738;DHT22;64356;45.638;13.764;2023-06-10T04:08:07;24.60;63.20
75738;DHT22;64356;45.638;13.764;2023-06-10T04:10:33;24.60;63.90
75738;DHT22;64356;45.638;13.764;2023-06-10T04:12:58;24.60;63.40
75738;DHT22;64356;45.638;13.764;2023-06-10T04:15:25;24.60;63.40
75738;DHT22;64356;45.638;13.764;2023-06-10T04:17:51;24.60;63.40
75738;DHT22;64356;45.638;13.764;2023-06-10T04:20:16;24.70;63.30
75738;DHT22;64356;45.638;13.764;2023-06-10T04:22:42;24.60;63.20
75738;DHT22;64356;45.638;13.764;2023-06-10T04:25:09;24.60;63.20
75738;DHT22;64356;45.638;13.764;2023-06-10T04:27:35;24.60;63.20
75738;DHT22;64356;45.638;13.764;2023-06-10T04:30:01;24.60;63.20
75738;DHT22;64356;45.638;13.764;2023-06-10T04:32:26;24.60;63.40
75738;DHT22;64356;45.638;13.764;2023-06-10T04:34:52;24.60;63.30
75738;DHT22;64356;45.638;13.764;2023-06-10T04:37:18;24.70;63.40
75738;DHT22;64356;45.638;13.764;2023-06-10T04:39:44;24.60;63.30
75738;DHT22;64356;45.638;13.764;2023-06-10T04:42:10;24.60;63.40
75738;DHT22;64356;45.638;13.764;2023-06-10T04:44:35;24.60;63.40
75738;DHT22;64356;45.638;13.764;2023-06-10T04:47:01;24.60;63.50
75738;DHT22;64356;45.638;13.764;2023-06-10T04:49:27;24.60;63.50
75738;DHT22;64356;45.638;13.764;2023-06-10T04:51:54;24.60;63.40
75738;DHT22;64356;45.638;13.764;2023-06-10T04:54:19;24.60;63.40
75738;DHT22;64356;45.638;13.764;2023-06-10T04:56:45;24.60;63.40
75738;DHT22;64356;45.638;13.764;2023-06-10T04:59:12;24.60;63.30
75738;DHT22;64356;45.638;13.764;2023-06-10T05:01:37;24.70;63.30
75738;DHT22;64356;45.638;13.764;2023-06-10T05:04:03;24.60;63.20
75738;DHT22;64356;45.638;13.764;2023-06-10T05:06:29;24.60;63.20
75738;DHT22;64356;45.638;13.764;2023-06-10T05:08:55;24.60;63.20
75738;DHT22;64356;45.638;13.764;2023-06-10T05:11:21;24.60;63.20
75738;DHT22;64356;45.638;13.764;2023-06-10T05:13:47;24.60;63.20
75738;DHT22;64356;45.638;13.764;2023-06-10T05:16:13;24.60;63.20
75738;DHT22;64356;45.638;13.764;2023-06-10T05:18:40;24.60;63.20
75738;DHT22;64356;45.638;13.764;2023-06-10T05:21:06;24.60;63.20
75738;DHT22;64356;45.638;13.764;2023-06-10T05:23:32;24.70;63.30
75738;DHT22;64356;45.638;13.764;2023-06-10T05:25:58;24.60;63.30
75738;DHT22;64356;45.638;13.764;2023-06-10T05:28:25;24.60;63.30
75738;DHT22;64356;45.638;13.764;2023-06-10T05:30:51;24.70;63.30
75738;DHT22;64356;45.638;13.764;2023-06-10T05:33:17;24.60;63.30
75738;DHT22;64356;45.638;13.764;2023-06-10T05:35:42;24.60;63.50
75738;DHT22;64356;45.638;13.764;2023-06-10T05:38:08;24.70;63.60
75738;DHT22;64356;45.638;13.764;2023-06-10T05:40:34;24.70;63.50
75738;DHT22;64356;45.638;13.764;2023-06-10T05:43:00;24.60;63.50
75738;DHT22;64356;45.638;13.764;2023-06-10T05:45:26;24.60;63.20
75738;DHT22;64356;45.638;13.764;2023-06-10T05:47:52;24.60;63.00
75738;DHT22;64356;45.638;13.764;2023-06-10T05:50:18;24.60;62.90
75738;DHT22;64356;45.638;13.764;2023-06-10T05:52:44;24.60;63.70
75738;DHT22;64356;45.638;13.764;2023-06-10T05:55:09;24.70;63.30
75738;DHT22;64356;45.638;13.764;2023-06-10T05:57:35;24.80;63.30
75738;DHT22;64356;45.638;13.764;2023-06-10T06:00:01;24.80;63.20
75738;DHT22;64356;45.638;13.764;2023-06-10T06:02:27;24.90;63.30
75738;DHT22;64356;45.638;13.764;2023-06-10T06:04:52;24.90;62.80
75738;DHT22;64356;45.638;13.764;2023-06-10T06:07:18;24.90;63.10
75738;DHT22;64356;45.638;13.764;2023-06-10T06:09:46;24.90;63.10
75738;DHT22;64356;45.638;13.764;2023-06-10T06:12:12;24.90;62.50
75738;DHT22;64356;45.638;13.764;2023-06-10T06:14:38;24.90;62.70
75738;DHT22;64356;45.638;13.764;2023-06-10T06:17:07;24.80;63.20
75738;DHT22;64356;45.638;13.764;2023-06-10T06:19:33;24.80;63.70
75738;DHT22;64356;45.638;13.764;2023-06-10T06:21:59;24.80;64.30
75738;DHT22;64356;45.638;13.764;2023-06-10T06:24:25;24.80;64.50
75738;DHT22;64356;45.638;13.764;2023-06-10T06:26:50;24.80;64.70
75738;DHT22;64356;45.638;13.764;2023-06-10T06:29:16;24.80;64.80
75738;DHT22;64356;45.638;13.764;2023-06-10T06:31:42;24.80;65.20
75738;DHT22;64356;45.638;13.764;2023-06-10T06:34:07;24.80;65.20
75738;DHT22;64356;45.638;13.764;2023-06-10T06:36:33;24.80;65.10
75738;DHT22;64356;45.638;13.764;2023-06-10T06:38:59;24.80;65.60
75738;DHT22;64356;45.638;13.764;2023-06-10T06:41:27;24.80;65.20
75738;DHT22;64356;45.638;13.764;2023-06-10T06:43:56;24.90;65.10
75738;DHT22;64356;45.638;13.764;2023-06-10T06:46:22;24.90;65.20
75738;DHT22;64356;45.638;13.764;2023-06-10T06:48:48;24.90;65.20
75738;DHT22;64356;45.638;13.764;2023-06-10T06:51:14;24.80;65.10
75738;DHT22;64356;45.638;13.764;2023-06-10T06:53:40;24.80;65.30
75738;DHT22;64356;45.638;13.764;2023-06-10T06:56:10;24.80;65.60
75738;DHT22;64356;45.638;13.764;2023-06-10T06:58:36;24.70;65.90
75738;DHT22;64356;45.638;13.764;2023-06-10T07:01:02;24.70;66.20
75738;DHT22;64356;45.638;13.764;2023-06-10T07:03:28;24.70;66.40
75738;DHT22;64356;45.638;13.764;2023-06-10T07:05:53;24.70;66.40
75738;DHT22;64356;45.638;13.764;2023-06-10T07:08:19;24.70;66.40
75738;DHT22;64356;45.638;13.764;2023-06-10T07:10:44;24.80;66.60
75738;DHT22;64356;45.638;13.764;2023-06-10T07:13:10;24.80;66.50
75738;DHT22;64356;45.638;13.764;2023-06-10T07:15:36;24.80;66.40
75738;DHT22;64356;45.638;13.764;2023-06-10T07:18:01;24.80;66.40
75738;DHT22;64356;45.638;13.764;2023-06-10T07:20:27;24.80;66.50
75738;DHT22;64356;45.638;13.764;2023-06-10T07:22:53;24.80;66.70
75738;DHT22;64356;45.638;13.764;2023-06-10T07:25:19;24.80;66.90
75738;DHT22;64356;45.638;13.764;2023-06-10T07:27:44;24.80;67.00
75738;DHT22;64356;45.638;13.764;2023-06-10T07:30:10;24.80;67.00
75738;DHT22;64356;45.638;13.764;2023-06-10T07:32:36;24.80;67.20
75738;DHT22;64356;45.638;13.764;2023-06-10T07:35:02;24.90;67.10
75738;DHT22;64356;45.638;13.764;2023-06-10T07:37:28;24.90;67.10
75738;DHT22;64356;45.638;13.764;2023-06-10T07:39:54;24.90;67.00
75738;DHT22;64356;45.638;13.764;2023-06-10T07:42:19;24.90;67.20
75738;DHT22;64356;45.638;13.764;2023-06-10T07:44:45;24.90;67.30
75738;DHT22;64356;45.638;13.764;2023-06-10T07:47:11;24.90;67.10
75738;DHT22;64356;45.638;13.764;2023-06-10T07:49:36;24.80;66.90
75738;DHT22;64356;45.638;13.764;2023-06-10T07:52:02;24.90;66.50
75738;DHT22;64356;45.638;13.764;2023-06-10T07:54:28;24.90;66.00
75738;DHT22;64356;45.638;13.764;2023-06-10T07:56:53;24.90;66.40
75738;DHT22;64356;45.638;13.764;2023-06-10T07:59:19;24.90;65.60
75738;DHT22;64356;45.638;13.764;2023-06-10T08:01:45;25.00;65.60
75738;DHT22;64356;45.638;13.764;2023-06-10T08:04:11;25.00;65.30
75738;DHT22;64356;45.638;13.764;2023-06-10T08:06:36;25.00;65.40
75738;DHT22;64356;45.638;13.764;2023-06-10T08:09:03;25.00;65.70
75738;DHT22;64356;45.638;13.764;2023-06-10T08:11:29;25.00;65.60
75738;DHT22;64356;45.638;13.764;2023-06-10T08:13:55;25.10;65.90
75738;DHT22;64356;45.638;13.764;2023-06-10T08:16:21;25.00;66.00
75738;DHT22;64356;45.638;13.764;2023-06-10T08:18:46;25.10;66.00
75738;DHT22;64356;45.638;13.764;2023-06-10T08:21:12;25.10;66.10
75738;DHT22;64356;45.638;13.764;2023-06-10T08:23:38;25.10;66.10
75738;DHT22;64356;45.638;13.764;2023-06-10T08:26:04;25.10;66.00
75738;DHT22;64356;45.638;13.764;2023-06-10T08:28:30;25.10;65.90
75738;DHT22;64356;45.638;13.764;2023-06-10T08:30:56;25.10;66.00
75738;DHT22;64356;45.638;13.764;2023-06-10T08:33:21;25.20;65.70
75738;DHT22;64356;45.638;13.764;2023-06-10T08:35:47;25.20;65.70
75738;DHT22;64356;45.638;13.764;2023-06-10T08:38:13;25.20;65.60
75738;DHT22;64356;45.638;13.764;2023-06-10T08:40:38;25.20;65.60
75738;DHT22;64356;45.638;13.764;2023-06-10T08:43:05;25.20;65.70
75738;DHT22;64356;45.638;13.764;2023-06-10T08:45:35;25.20;65.60
75738;DHT22;64356;45.638;13.764;2023-06-10T08:48:03;25.20;65.90
75738;DHT22;64356;45.638;13.764;2023-06-10T08:50:34;25.20;66.30
75738;DHT22;64356;45.638;13.764;2023-06-10T08:53:07;25.20;67.60
75738;DHT22;64356;45.638;13.764;2023-06-10T08:55:33;25.20;67.30
75738;DHT22;64356;45.638;13.764;2023-06-10T08:58:01;25.20;68.60
75738;DHT22;64356;45.638;13.764;2023-06-10T09:00:28;25.40;67.50
75738;DHT22;64356;45.638;13.764;2023-06-10T09:02:56;25.40;67.20
75738;DHT22;64356;45.638;13.764;2023-06-10T09:05:22;25.40;67.20
75738;DHT22;64356;45.638;13.764;2023-06-10T09:07:48;25.40;67.30
75738;DHT22;64356;45.638;13.764;2023-06-10T09:10:14;25.30;67.30
75738;DHT22;64356;45.638;13.764;2023-06-10T09:12:40;25.40;67.70
75738;DHT22;64356;45.638;13.764;2023-06-10T09:15:09;25.30;67.90
75738;DHT22;64356;45.638;13.764;2023-06-10T09:17:35;25.40;68.40
75738;DHT22;64356;45.638;13.764;2023-06-10T09:20:06;25.40;68.10
75738;DHT22;64356;45.638;13.764;2023-06-10T09:22:33;25.40;68.50
75738;DHT22;64356;45.638;13.764;2023-06-10T09:25:10;25.40;68.90
75738;DHT22;64356;45.638;13.764;2023-06-10T09:30:29;25.40;68.50
75738;DHT22;64356;45.638;13.764;2023-06-10T09:32:56;25.50;68.50
75738;DHT22;64356;45.638;13.764;2023-06-10T09:35:26;25.50;68.70
75738;DHT22;64356;45.638;13.764;2023-06-10T09:37:53;25.50;68.70
75738;DHT22;64356;45.638;13.764;2023-06-10T09:40:19;25.60;68.40
75738;DHT22;64356;45.638;13.764;2023-06-10T09:42:45;25.60;68.40
75738;DHT22;64356;45.638;13.764;2023-06-10T09:45:11;25.60;68.30
75738;DHT22;64356;45.638;13.764;2023-06-10T09:47:36;25.60;68.80
75738;DHT22;64356;45.638;13.764;2023-06-10T09:50:02;25.60;69.10
75738;DHT22;64356;45.638;13.764;2023-06-10T09:52:29;25.60;69.50
75738;DHT22;64356;45.638;13.764;2023-06-10T09:55:00;25.60;69.60
75738;DHT22;64356;45.638;13.764;2023-06-10T09:57:30;25.60;69.20
75738;DHT22;64356;45.638;13.764;2023-06-10T09:59:58;25.70;68.80
75738;DHT22;64356;45.638;13.764;2023-06-10T10:02:23;25.60;68.50
75738;DHT22;64356;45.638;13.764;2023-06-10T10:04:49;25.70;68.10
75738;DHT22;64356;45.638;13.764;2023-06-10T10:07:15;25.60;67.40
75738;DHT22;64356;45.638;13.764;2023-06-10T10:09:42;25.60;67.40
75738;DHT22;64356;45.638;13.764;2023-06-10T10:12:17;25.70;67.60
75738;DHT22;64356;45.638;13.764;2023-06-10T10:14:49;25.60;67.40
75738;DHT22;64356;45.638;13.764;2023-06-10T10:17:16;25.70;67.70
75738;DHT22;64356;45.638;13.764;2023-06-10T10:19:54;25.80;67.90
75738;DHT22;64356;45.638;13.764;2023-06-10T10:22:25;25.80;68.20
75738;DHT22;64356;45.638;13.764;2023-06-10T10:25:02;25.90;68.80
75738;DHT22;64356;45.638;13.764;2023-06-10T10:27:36;25.90;69.20
75738;DHT22;64356;45.638;13.764;2023-06-10T10:30:07;25.90;69.10
75738;DHT22;64356;45.638;13.764;2023-06-10T10:32:40;25.90;69.00
75738;DHT22;64356;45.638;13.764;2023-06-10T10:35:14;25.90;68.60
75738;DHT22;64356;45.638;13.764;2023-06-10T10:37:41;26.00;68.00
75738;DHT22;64356;45.638;13.764;2023-06-10T10:40:08;26.00;68.00
75738;DHT22;64356;45.638;13.764;2023-06-10T10:42:34;26.00;67.90
75738;DHT22;64356;45.638;13.764;2023-06-10T10:45:01;26.10;67.90
75738;DHT22;64356;45.638;13.764;2023-06-10T10:47:28;26.10;67.80
75738;DHT22;64356;45.638;13.764;2023-06-10T10:49:56;26.10;67.70
75738;DHT22;64356;45.638;13.764;2023-06-10T10:52:27;26.20;68.00
75738;DHT22;64356;45.638;13.764;2023-06-10T10:54:54;26.10;68.30
75738;DHT22;64356;45.638;13.764;2023-06-10T10:57:22;26.20;68.40
75738;DHT22;64356;45.638;13.764;2023-06-10T11:05:00;26.20;68.20
75738;DHT22;64356;45.638;13.764;2023-06-10T11:07:26;26.20;67.90
75738;DHT22;64356;45.638;13.764;2023-06-10T11:10:09;26.20;67.80
75738;DHT22;64356;45.638;13.764;2023-06-10T11:12:54;26.20;67.80
75738;DHT22;64356;45.638;13.764;2023-06-10T11:15:26;26.30;67.80
75738;DHT22;64356;45.638;13.764;2023-06-10T11:20:50;26.20;67.30
75738;DHT22;64356;45.638;13.764;2023-06-10T11:26:11;26.30;67.10
75738;DHT22;64356;45.638;13.764;2023-06-10T11:28:37;26.30;67.00
75738;DHT22;64356;45.638;13.764;2023-06-10T11:31:03;26.30;66.80
75738;DHT22;64356;45.638;13.764;2023-06-10T11:33:29;26.30;66.80
75738;DHT22;64356;45.638;13.764;2023-06-10T11:35:55;26.40;67.00
75738;DHT22;64356;45.638;13.764;2023-06-10T11:38:21;26.40;67.00
75738;DHT22;64356;45.638;13.764;2023-06-10T11:40:51;26.40;66.80
75738;DHT22;64356;45.638;13.764;2023-06-10T11:43:20;26.40;66.50
75738;DHT22;64356;45.638;13.764;2023-06-10T11:45:46;26.40;66.30
75738;DHT22;64356;45.638;13.764;2023-06-10T11:48:12;26.40;66.20
75738;DHT22;64356;45.638;13.764;2023-06-10T11:50:38;26.40;66.30
75738;DHT22;64356;45.638;13.764;2023-06-10T11:53:05;26.30;66.30
75738;DHT22;64356;45.638;13.764;2023-06-10T11:55:44;26.30;66.50
75738;DHT22;64356;45.638;13.764;2023-06-10T11:58:20;26.30;66.60
75738;DHT22;64356;45.638;13.764;2023-06-10T12:00:56;26.30;66.60
75738;DHT22;64356;45.638;13.764;2023-06-10T12:03:24;26.20;66.70
75738;DHT22;64356;45.638;13.764;2023-06-10T12:06:03;26.30;66.90
75738;DHT22;64356;45.638;13.764;2023-06-10T12:08:29;26.20;66.90
75738;DHT22;64356;45.638;13.764;2023-06-10T12:10:56;26.20;66.90
75738;DHT22;64356;45.638;13.764;2023-06-10T12:13:22;26.20;66.90
75738;DHT22;64356;45.638;13.764;2023-06-10T12:15:50;26.20;66.80
75738;DHT22;64356;45.638;13.764;2023-06-10T12:18:16;26.20;66.80
75738;DHT22;64356;45.638;13.764;2023-06-10T12:20:43;26.20;66.90
75738;DHT22;64356;45.638;13.764;2023-06-10T12:23:12;26.20;67.10
75738;DHT22;64356;45.638;13.764;2023-06-10T12:25:39;26.20;67.10
75738;DHT22;64356;45.638;13.764;2023-06-10T12:28:05;26.20;67.20
75738;DHT22;64356;45.638;13.764;2023-06-10T12:30:32;26.10;67.30
75738;DHT22;64356;45.638;13.764;2023-06-10T12:32:58;26.10;67.50
75738;DHT22;64356;45.638;13.764;2023-06-10T12:35:25;26.00;67.60
75738;DHT22;64356;45.638;13.764;2023-06-10T12:37:59;26.00;67.70
75738;DHT22;64356;45.638;13.764;2023-06-10T12:40:34;26.00;67.90
75738;DHT22;64356;45.638;13.764;2023-06-10T12:43:01;25.90;67.90
75738;DHT22;64356;45.638;13.764;2023-06-10T12:45:32;25.90;68.50
75738;DHT22;64356;45.638;13.764;2023-06-10T12:48:08;25.90;68.00
75738;DHT22;64356;45.638;13.764;2023-06-10T12:50:41;25.90;67.70
75738;DHT22;64356;45.638;13.764;2023-06-10T12:53:08;25.90;67.40
75738;DHT22;64356;45.638;13.764;2023-06-10T12:55:34;25.90;66.90
75738;DHT22;64356;45.638;13.764;2023-06-10T12:58:00;25.90;66.50
75738;DHT22;64356;45.638;13.764;2023-06-10T13:00:28;25.90;66.20
75738;DHT22;64356;45.638;13.764;2023-06-10T13:03:00;25.90;65.90
75738;DHT22;64356;45.638;13.764;2023-06-10T13:05:27;25.80;65.90
75738;DHT22;64356;45.638;13.764;2023-06-10T13:07:54;25.80;64.90
75738;DHT22;64356;45.638;13.764;2023-06-10T13:10:21;25.80;64.80
75738;DHT22;64356;45.638;13.764;2023-06-10T13:12:46;25.80;64.70
75738;DHT22;64356;45.638;13.764;2023-06-10T13:15:13;25.80;64.30
75738;DHT22;64356;45.638;13.764;2023-06-10T13:17:40;25.80;64.40
75738;DHT22;64356;45.638;13.764;2023-06-10T13:20:06;25.80;64.30
75738;DHT22;64356;45.638;13.764;2023-06-10T13:22:33;25.80;64.10
75738;DHT22;64356;45.638;13.764;2023-06-10T13:25:04;25.90;64.10
75738;DHT22;64356;45.638;13.764;2023-06-10T13:27:30;25.80;63.70
75738;DHT22;64356;45.638;13.764;2023-06-10T13:29:56;25.80;63.60
75738;DHT22;64356;45.638;13.764;2023-06-10T13:32:22;25.80;63.40
75738;DHT22;64356;45.638;13.764;2023-06-10T13:34:47;25.80;63.30
75738;DHT22;64356;45.638;13.764;2023-06-10T13:37:15;25.80;63.20
75738;DHT22;64356;45.638;13.764;2023-06-10T13:39:42;25.80;63.10
75738;DHT22;64356;45.638;13.764;2023-06-10T13:42:08;25.80;63.70
75738;DHT22;64356;45.638;13.764;2023-06-10T13:44:34;25.80;63.10
75738;DHT22;64356;45.638;13.764;2023-06-10T13:47:02;25.80;63.20
75738;DHT22;64356;45.638;13.764;2023-06-10T13:49:28;25.80;63.10
75738;DHT22;64356;45.638;13.764;2023-06-10T13:51:54;25.70;63.00
75738;DHT22;64356;45.638;13.764;2023-06-10T13:54:20;25.70;63.10
75738;DHT22;64356;45.638;13.764;2023-06-10T13:56:46;25.70;63.20
75738;DHT22;64356;45.638;13.764;2023-06-10T13:59:12;25.70;63.10
75738;DHT22;64356;45.638;13.764;2023-06-10T14:01:38;25.70;63.20
75738;DHT22;64356;45.638;13.764;2023-06-10T14:04:04;25.70;63.20
75738;DHT22;64356;45.638;13.764;2023-06-10T14:06:30;25.70;63.20
75738;DHT22;64356;45.638;13.764;2023-06-10T14:08:56;25.70;63.20
75738;DHT22;64356;45.638;13.764;2023-06-10T14:11:21;25.70;63.10
75738;DHT22;64356;45.638;13.764;2023-06-10T14:13:47;25.70;63.00
75738;DHT22;64356;45.638;13.764;2023-06-10T14:16:13;25.70;62.80
75738;DHT22;64356;45.638;13.764;2023-06-10T14:18:38;25.70;62.70
75738;DHT22;64356;45.638;13.764;2023-06-10T14:21:05;25.70;62.60
75738;DHT22;64356;45.638;13.764;2023-06-10T14:23:30;25.60;62.70
75738;DHT22;64356;45.638;13.764;2023-06-10T14:25:56;25.70;62.70
75738;DHT22;64356;45.638;13.764;2023-06-10T14:28:22;25.60;62.50
75738;DHT22;64356;45.638;13.764;2023-06-10T14:30:49;25.60;62.40
75738;DHT22;64356;45.638;13.764;2023-06-10T14:33:15;25.60;62.40
75738;DHT22;64356;45.638;13.764;2023-06-10T14:35:41;25.70;62.40
75738;DHT22;64356;45.638;13.764;2023-06-10T14:38:08;25.70;62.30
75738;DHT22;64356;45.638;13.764;2023-06-10T14:40:34;25.60;62.20
75738;DHT22;64356;45.638;13.764;2023-06-10T14:42:59;25.60;62.20
75738;DHT22;64356;45.638;13.764;2023-06-10T14:45:26;25.60;62.10
75738;DHT22;64356;45.638;13.764;2023-06-10T14:47:52;25.60;62.20
75738;DHT22;64356;45.638;13.764;2023-06-10T14:50:18;25.60;62.20
75738;DHT22;64356;45.638;13.764;2023-06-10T14:52:43;25.60;62.30
75738;DHT22;64356;45.638;13.764;2023-06-10T14:55:09;25.60;62.40
75738;DHT22;64356;45.638;13.764;2023-06-10T14:57:35;25.60;62.50
75738;DHT22;64356;45.638;13.764;2023-06-10T15:00:01;25.60;62.50
75738;DHT22;64356;45.638;13.764;2023-06-10T15:02:26;25.60;62.50
75738;DHT22;64356;45.638;13.764;2023-06-10T15:04:52;25.60;62.50
75738;DHT22;64356;45.638;13.764;2023-06-10T15:07:18;25.60;62.60
75738;DHT22;64356;45.638;13.764;2023-06-10T15:09:44;25.60;62.60
75738;DHT22;64356;45.638;13.764;2023-06-10T15:12:10;25.60;62.70
75738;DHT22;64356;45.638;13.764;2023-06-10T15:14:36;25.60;62.70
75738;DHT22;64356;45.638;13.764;2023-06-10T15:17:02;25.60;62.70
75738;DHT22;64356;45.638;13.764;2023-06-10T15:19:28;25.60;62.60
75738;DHT22;64356;45.638;13.764;2023-06-10T15:21:53;25.60;62.60
75738;DHT22;64356;45.638;13.764;2023-06-10T15:24:19;25.60;62.60
75738;DHT22;64356;45.638;13.764;2023-06-10T15:26:45;25.60;62.70
75738;DHT22;64356;45.638;13.764;2023-06-10T15:29:11;25.60;62.60